SILO ALERT LOG
| Silo ID | Alert Type | Alert Message | Silo Type | Points | Depth (mm) | Strength | Temperature (°C) | Humidity (%) | Height (mm) | Volume (㎥) | Weight (t) | Flag | Time |
|---|---|---|---|---|---|---|---|---|---|---|---|---|---|
| WJWJR01 | Humidity | 습도센서 측정값이 80% 초과 | 평 | 73 | 7038 | 1250 | 24.7 | 81.1 | 601 | 68.037 | 43.013 | 0 | 2026-05-28 21:26:09.000 |
| WJWJR01 | Humidity | 습도센서 측정값이 80% 초과 | 평 | 4 | -3 | 2449 | 23.7 | 81.4 | 7643 | 864.515 | 546.546 | 29 | 2026-05-28 11:27:29.000 |
| WJWJR05 | Humidity | 습도센서 측정값이 80% 초과 | 평 | 67 | 7705 | 2111 | 21.1 | 81.6 | 24 | 2.76 | 1.745 | 0 | 2026-05-28 11:26:12.000 |
| WJWJR01 | Humidity | 습도센서 측정값이 80% 초과 | 평 | 2 | -50 | 2065 | 22.4 | 84.9 | 7690 | 869.774 | 549.871 | 29 | 2026-05-28 10:28:06.000 |
| WJWJR05 | Humidity | 습도센서 측정값이 80% 초과 | 평 | 67 | 7707 | 2101 | 20.2 | 83.2 | 22 | 2.541 | 1.607 | 0 | 2026-05-28 10:26:16.000 |
| WJWJR01 | Humidity | 습도센서 측정값이 80% 초과 | 평 | 4 | -10 | 2698 | 20.4 | 85.7 | 7650 | 865.299 | 547.042 | 0 | 2026-05-28 09:27:57.000 |
| WJWJR05 | Humidity | 습도센서 측정값이 80% 초과 | 평 | 67 | 7706 | 2093 | 19.9 | 84.6 | 23 | 2.684 | 1.697 | 0 | 2026-05-28 09:26:16.000 |
| WJWJR05 | Humidity | 습도센서 측정값이 80% 초과 | 평 | 68 | 7703 | 2063 | 19.8 | 83.2 | 26 | 3.018 | 1.908 | 0 | 2026-05-28 08:26:16.000 |
| WJWJR01 | Humidity | 습도센서 측정값이 80% 초과 | 평 | 67 | 7770 | 1909 | 19.3 | 86.5 | -130 | -14.771 | 0 | 0 | 2026-05-28 08:25:55.000 |
| WJWJR05 | Humidity | 습도센서 측정값이 80% 초과 | 평 | 67 | 7707 | 2084 | 19.8 | 83.3 | 22 | 2.538 | 1.604 | 0 | 2026-05-28 07:26:14.000 |
| WJWJR01 | Humidity | 습도센서 측정값이 80% 초과 | 평 | 66 | 7788 | 1891 | 19.3 | 86.7 | -148 | -16.768 | 0 | 0 | 2026-05-28 07:25:49.000 |
| WJWJR05 | Humidity | 습도센서 측정값이 80% 초과 | 평 | 67 | 7704 | 2105 | 19.8 | 83.1 | 25 | 2.916 | 1.844 | 0 | 2026-05-28 06:26:09.000 |
| WJWJR01 | Humidity | 습도센서 측정값이 80% 초과 | 평 | 69 | 7788 | 1860 | 19.4 | 86.8 | -148 | -16.761 | 0 | 0 | 2026-05-28 06:25:51.000 |
| WJWJR05 | Humidity | 습도센서 측정값이 80% 초과 | 평 | 67 | 7700 | 2069 | 20 | 82.7 | 29 | 3.391 | 2.144 | 0 | 2026-05-28 05:26:09.000 |
| WJWJR01 | Humidity | 습도센서 측정값이 80% 초과 | 평 | 68 | 7759 | 1895 | 19.5 | 86.4 | -119 | -13.519 | 0 | 0 | 2026-05-28 05:25:56.000 |
| WJWJR05 | Humidity | 습도센서 측정값이 80% 초과 | 평 | 68 | 7700 | 2101 | 20.1 | 82.4 | 29 | 3.328 | 2.104 | 0 | 2026-05-28 04:26:13.000 |
| WJWJR01 | Humidity | 습도센서 측정값이 80% 초과 | 평 | 68 | 7777 | 1891 | 19.7 | 86.1 | -137 | -15.523 | 0 | 0 | 2026-05-28 04:25:52.000 |
| WJWJR05 | Humidity | 습도센서 측정값이 80% 초과 | 평 | 67 | 7726 | 2079 | 20.4 | 81.6 | 3 | 0.401 | 0.254 | 0 | 2026-05-28 03:26:13.000 |
| WJWJR01 | Humidity | 습도센서 측정값이 80% 초과 | 평 | 66 | 7768 | 1927 | 19.9 | 85.7 | -128 | -14.566 | 0 | 0 | 2026-05-28 03:25:52.000 |
| WJWJR05 | Humidity | 습도센서 측정값이 80% 초과 | 평 | 68 | 7719 | 2105 | 20.7 | 80.9 | 10 | 1.15 | 0.727 | 0 | 2026-05-28 02:26:12.000 |
[첫 페이지] [58] [59] [60] [61] 62 [63] [64] [65] [66] [마지막 페이지]